Time;durP1;ratioP1;P1;durP2;ratioP2;P2;SDS_P1;SDS_P2;PMS_P1;PMS_P2;Temp;Humidity;BMP_temperature;BMP_pressure;BME280_temperature;BME280_humidity;BME280_pressure;Samples;Min_cycle;Max_cycle;Signal;HPM_P1;HPM_P2
2022/04/18 00:00:18;;;;;;;16.58;9.40;;;;;;;;;;4944894;29;20918;-72
2022/04/18 00:02:46;;;;;;;10.98;7.63;;;;;;;;;;4938117;29;20246;-72
2022/04/18 00:05:14;;;;;;;12.15;8.60;;;;;;;;;;4932285;29;20195;-71
2022/04/18 00:07:41;;;;;;;12.05;7.55;;;;;;;;;;4938823;29;20195;-72
2022/04/18 00:10:08;;;;;;;12.38;7.70;;;;;;;;;;4936490;29;20222;-72
2022/04/18 00:12:36;;;;;;;13.15;9.13;;;;;;;;;;4939486;29;20218;-72
2022/04/18 00:15:03;;;;;;;10.75;6.82;;;;;;;;;;4939768;29;20207;-71
2022/04/18 00:17:30;;;;;;;10.18;6.85;;;;;;;;;;4935809;29;20206;-72
2022/04/18 00:19:57;;;;;;;11.52;7.30;;;;;;;;;;4937205;29;20207;-71
2022/04/18 00:22:25;;;;;;;12.90;7.72;;;;;;;;;;4936132;29;20211;-72
2022/04/18 00:24:52;;;;;;;10.80;6.82;;;;;;;;;;4939602;29;20195;-71
2022/04/18 00:27:20;;;;;;;13.55;7.40;;;;;;;;;;4949972;29;20198;-73
2022/04/18 00:29:49;;;;;;;12.70;7.53;;;;;;;;;;4943488;29;20218;-71
2022/04/18 00:32:16;;;;;;;11.82;7.32;;;;;;;;;;4939924;29;20294;-72
2022/04/18 00:34:43;;;;;;;12.27;7.75;;;;;;;;;;4934430;29;20203;-71
2022/04/18 00:37:10;;;;;;;12.50;8.32;;;;;;;;;;4942163;29;20198;-71
2022/04/18 00:39:38;;;;;;;10.90;6.97;;;;;;;;;;4947006;29;20225;-72
2022/04/18 00:42:06;;;;;;;9.43;6.25;;;;;;;;;;4945638;29;20199;-71
2022/04/18 00:44:33;;;;;;;12.43;6.75;;;;;;;;;;4947022;29;20201;-71
2022/04/18 00:47:00;;;;;;;7.65;6.63;;;;;;;;;;4940415;29;20195;-74
2022/04/18 00:49:28;;;;;;;11.18;6.20;;;;;;;;;;4932231;29;20226;-72
2022/04/18 00:51:56;;;;;;;7.57;5.85;;;;;;;;;;4945353;29;20209;-71
2022/04/18 00:54:23;;;;;;;8.73;6.88;;;;;;;;;;4949544;29;20199;-71
2022/04/18 00:56:53;;;;;;;10.85;7.10;;;;;;;;;;4939380;29;20689;-72
2022/04/18 00:59:21;;;;;;;10.05;7.45;;;;;;;;;;4944069;29;20273;-74
2022/04/18 01:01:48;;;;;;;10.55;7.35;;;;;;;;;;4939571;29;20274;-72
2022/04/18 01:04:15;;;;;;;9.93;7.28;;;;;;;;;;4937802;29;20199;-71
2022/04/18 01:06:42;;;;;;;10.43;7.28;;;;;;;;;;4934473;29;20194;-72
2022/04/18 01:09:09;;;;;;;12.95;7.78;;;;;;;;;;4945082;28;20224;-73
2022/04/18 01:11:36;;;;;;;10.98;7.40;;;;;;;;;;4936140;29;20690;-72
2022/04/18 01:14:06;;;;;;;10.05;6.90;;;;;;;;;;4929041;29;20613;-73
2022/04/18 01:16:33;;;;;;;13.52;8.98;;;;;;;;;;4932631;29;20286;-73
2022/04/18 01:19:00;;;;;;;11.93;7.63;;;;;;;;;;4931261;29;20210;-72
2022/04/18 01:21:28;;;;;;;11.35;7.07;;;;;;;;;;4941343;29;20195;-71
2022/04/18 01:23:57;;;;;;;10.85;8.18;;;;;;;;;;4941219;29;20222;-73
2022/04/18 01:29:09;;;;;;;14.00;8.55;;;;;;;;;;4935051;29;20624;-73
2022/04/18 01:31:37;;;;;;;17.13;10.02;;;;;;;;;;4945611;29;20641;-74
2022/04/18 01:34:04;;;;;;;14.35;9.00;;;;;;;;;;4945478;29;20485;-73
2022/04/18 01:36:33;;;;;;;16.05;8.07;;;;;;;;;;4937271;29;20194;-72
2022/04/18 01:39:00;;;;;;;13.38;8.10;;;;;;;;;;4934745;29;20235;-71
2022/04/18 01:41:27;;;;;;;13.50;8.25;;;;;;;;;;4934801;29;20206;-75
2022/04/18 01:43:54;;;;;;;12.32;7.95;;;;;;;;;;4934559;29;20199;-72
2022/04/18 01:46:21;;;;;;;15.77;9.15;;;;;;;;;;4933091;29;20206;-73
2022/04/18 01:48:51;;;;;;;10.88;8.05;;;;;;;;;;4941580;29;20202;-72
2022/04/18 01:51:19;;;;;;;14.25;9.13;;;;;;;;;;4939238;29;20202;-71
2022/04/18 01:53:47;;;;;;;12.85;7.82;;;;;;;;;;4933398;29;20222;-74
2022/04/18 01:56:15;;;;;;;13.77;8.13;;;;;;;;;;4937054;29;20299;-73
2022/04/18 01:58:42;;;;;;;13.13;7.97;;;;;;;;;;4942205;29;20202;-73
2022/04/18 02:01:09;;;;;;;13.02;8.05;;;;;;;;;;4935650;29;20187;-72
2022/04/18 02:03:36;;;;;;;13.95;8.77;;;;;;;;;;4941942;29;20205;-73
2022/04/18 02:06:03;;;;;;;13.50;8.85;;;;;;;;;;4943376;29;20206;-71
2022/04/18 02:08:31;;;;;;;13.77;8.27;;;;;;;;;;4938641;29;20199;-71
2022/04/18 02:10:59;;;;;;;12.88;8.52;;;;;;;;;;4946361;29;20237;-73
2022/04/18 02:13:28;;;;;;;11.05;9.57;;;;;;;;;;4945660;29;20543;-72
2022/04/18 02:15:57;;;;;;;17.65;9.50;;;;;;;;;;4932618;29;20784;-73
2022/04/18 02:18:24;;;;;;;14.82;8.85;;;;;;;;;;4928949;29;20199;-73
2022/04/18 02:20:51;;;;;;;13.40;8.27;;;;;;;;;;4933568;29;20666;-73
2022/04/18 02:23:18;;;;;;;12.82;8.25;;;;;;;;;;4943849;29;20213;-73
2022/04/18 02:25:45;;;;;;;13.57;9.55;;;;;;;;;;4940209;29;20194;-72
2022/04/18 02:28:13;;;;;;;13.95;9.43;;;;;;;;;;4944722;29;20195;-73
2022/04/18 02:30:41;;;;;;;12.18;8.35;;;;;;;;;;4928816;29;20219;-72
2022/04/18 02:33:08;;;;;;;13.25;8.93;;;;;;;;;;4945171;29;20194;-72
2022/04/18 02:35:35;;;;;;;11.60;7.65;;;;;;;;;;4942570;29;20194;-73
2022/04/18 02:38:02;;;;;;;13.18;9.00;;;;;;;;;;4951736;29;20201;-72
2022/04/18 02:40:29;;;;;;;12.30;8.32;;;;;;;;;;4943314;29;20237;-72
2022/04/18 02:42:56;;;;;;;13.50;8.35;;;;;;;;;;4937315;29;20223;-73
2022/04/18 02:45:27;;;;;;;12.00;8.95;;;;;;;;;;4940318;29;20558;-73
2022/04/18 02:47:54;;;;;;;9.85;8.20;;;;;;;;;;4942903;29;20266;-73
2022/04/18 02:50:21;;;;;;;14.70;8.80;;;;;;;;;;4931587;29;20222;-73
2022/04/18 02:52:48;;;;;;;11.65;9.20;;;;;;;;;;4934620;29;20870;-73
2022/04/18 02:55:15;;;;;;;11.75;8.80;;;;;;;;;;4946743;29;20194;-75
2022/04/18 02:57:42;;;;;;;11.43;8.30;;;;;;;;;;4940164;29;20194;-72
2022/04/18 03:00:10;;;;;;;11.63;8.68;;;;;;;;;;4921046;29;20209;-72
2022/04/18 03:02:39;;;;;;;19.70;8.60;;;;;;;;;;4940663;29;20194;-73
2022/04/18 03:05:07;;;;;;;11.70;9.15;;;;;;;;;;4930858;29;20560;-70
2022/04/18 03:07:34;;;;;;;11.88;7.85;;;;;;;;;;4948441;29;20199;-71
2022/04/18 03:10:01;;;;;;;10.65;8.18;;;;;;;;;;4939446;29;20678;-70
2022/04/18 03:12:28;;;;;;;9.50;7.68;;;;;;;;;;4934524;29;20669;-70
2022/04/18 03:14:55;;;;;;;16.25;9.50;;;;;;;;;;4949350;29;20288;-70
2022/04/18 03:17:22;;;;;;;17.42;8.70;;;;;;;;;;4932579;29;20199;-70
2022/04/18 03:19:52;;;;;;;13.30;8.05;;;;;;;;;;4932448;29;20207;-70
2022/04/18 03:22:20;;;;;;;11.95;9.20;;;;;;;;;;4938105;29;20199;-71
2022/04/18 03:24:47;;;;;;;10.35;8.15;;;;;;;;;;4937369;29;20607;-71
2022/04/18 03:27:14;;;;;;;17.50;9.57;;;;;;;;;;4943226;29;20199;-70
2022/04/18 03:29:42;;;;;;;12.13;6.80;;;;;;;;;;4933440;29;20646;-70
2022/04/18 03:32:09;;;;;;;10.98;8.57;;;;;;;;;;4936319;29;20290;-71
2022/04/18 03:34:37;;;;;;;10.90;7.70;;;;;;;;;;4935978;29;20195;-70
2022/04/18 03:39:53;;;;;;;8.38;6.78;;;;;;;;;;4952261;29;20300;-71
2022/04/18 03:42:28;;;;;;;12.60;8.70;;;;;;;;;;4925453;29;20235;-70
2022/04/18 03:44:56;;;;;;;10.18;7.40;;;;;;;;;;4941559;29;20206;-73
2022/04/18 03:47:23;;;;;;;9.85;7.47;;;;;;;;;;4946108;29;20202;-71
2022/04/18 03:49:50;;;;;;;15.15;7.25;;;;;;;;;;4943629;29;20249;-71
2022/04/18 03:52:19;;;;;;;10.52;7.95;;;;;;;;;;4948508;29;20191;-71
2022/04/18 03:54:46;;;;;;;8.00;6.85;;;;;;;;;;4938034;29;20199;-71
2022/04/18 03:57:14;;;;;;;7.30;6.03;;;;;;;;;;4939415;29;20202;-70
2022/04/18 03:59:41;;;;;;;8.88;6.18;;;;;;;;;;4949106;29;20202;-70
2022/04/18 04:02:08;;;;;;;8.95;6.88;;;;;;;;;;4938367;29;20671;-70
2022/04/18 04:04:36;;;;;;;11.30;7.25;;;;;;;;;;4936144;29;20559;-70
2022/04/18 04:07:03;;;;;;;10.70;7.55;;;;;;;;;;4924896;29;20219;-70
2022/04/18 04:09:31;;;;;;;8.27;6.35;;;;;;;;;;4953332;29;20201;-70
2022/04/18 04:11:58;;;;;;;7.50;6.30;;;;;;;;;;4934877;29;20207;-71
2022/04/18 04:14:25;;;;;;;8.40;6.95;;;;;;;;;;4934819;29;20199;-70
2022/04/18 04:16:52;;;;;;;10.30;5.78;;;;;;;;;;4938034;29;20218;-73
2022/04/18 04:19:19;;;;;;;6.40;5.75;;;;;;;;;;4935303;29;20203;-71
2022/04/18 04:21:46;;;;;;;8.02;6.65;;;;;;;;;;4920466;29;20237;-72
2022/04/18 04:24:13;;;;;;;8.07;5.30;;;;;;;;;;4943268;29;20578;-71
2022/04/18 04:26:44;;;;;;;8.90;6.15;;;;;;;;;;4950246;29;20704;-75
2022/04/18 04:29:11;;;;;;;6.50;5.32;;;;;;;;;;4941552;29;20195;-73
2022/04/18 04:31:38;;;;;;;9.40;6.07;;;;;;;;;;4940073;29;20214;-73
2022/04/18 04:34:05;;;;;;;6.97;5.35;;;;;;;;;;4942680;29;20199;-74
2022/04/18 04:36:32;;;;;;;6.20;5.28;;;;;;;;;;4950546;29;20198;-74
2022/04/18 04:38:59;;;;;;;7.32;5.55;;;;;;;;;;4941752;29;20219;-73
2022/04/18 04:41:26;;;;;;;6.38;5.55;;;;;;;;;;4944950;29;20206;-73
2022/04/18 04:43:54;;;;;;;7.78;5.00;;;;;;;;;;4934390;29;20567;-73
2022/04/18 04:46:21;;;;;;;9.38;6.00;;;;;;;;;;4948724;29;20666;-73
2022/04/18 04:48:48;;;;;;;6.18;4.90;;;;;;;;;;4952500;29;20301;-72
2022/04/18 04:51:16;;;;;;;6.90;4.55;;;;;;;;;;4937066;29;20598;-73
2022/04/18 04:53:43;;;;;;;6.45;4.97;;;;;;;;;;4938757;29;20194;-73
2022/04/18 04:56:10;;;;;;;7.10;5.68;;;;;;;;;;4942863;29;20202;-73
2022/04/18 04:58:37;;;;;;;7.00;5.60;;;;;;;;;;4931833;29;20195;-73
2022/04/18 05:01:07;;;;;;;11.07;5.90;;;;;;;;;;4951197;29;20198;-73
2022/04/18 05:03:34;;;;;;;7.57;5.25;;;;;;;;;;4944883;29;20199;-72
2022/04/18 05:06:01;;;;;;;7.65;5.70;;;;;;;;;;4932224;29;20771;-72
2022/04/18 05:08:28;;;;;;;7.75;5.47;;;;;;;;;;4940127;29;20194;-73
2022/04/18 05:10:59;;;;;;;6.88;5.47;;;;;;;;;;4946357;29;20301;-73
2022/04/18 05:13:26;;;;;;;5.10;4.60;;;;;;;;;;4932159;29;20655;-73
2022/04/18 05:15:53;;;;;;;6.82;5.10;;;;;;;;;;4942079;29;20206;-73
2022/04/18 05:18:21;;;;;;;5.30;4.55;;;;;;;;;;4927267;29;20195;-73
2022/04/18 05:20:49;;;;;;;7.85;5.82;;;;;;;;;;4943163;29;20202;-73
2022/04/18 05:23:17;;;;;;;8.88;5.28;;;;;;;;;;4934088;29;20210;-74
2022/04/18 05:25:44;;;;;;;6.18;4.95;;;;;;;;;;4942874;29;20840;-74
2022/04/18 05:28:11;;;;;;;6.60;5.00;;;;;;;;;;4937270;29;20195;-74
2022/04/18 05:30:39;;;;;;;7.03;4.07;;;;;;;;;;4939598;29;20233;-74
2022/04/18 05:33:07;;;;;;;5.45;4.30;;;;;;;;;;4938273;29;20194;-74
2022/04/18 05:35:35;;;;;;;7.25;5.32;;;;;;;;;;4937536;29;20202;-73
2022/04/18 05:38:02;;;;;;;4.72;4.15;;;;;;;;;;4936175;29;20207;-73
2022/04/18 05:40:29;;;;;;;4.63;3.97;;;;;;;;;;4938780;29;20324;-73
2022/04/18 05:42:57;;;;;;;5.43;4.93;;;;;;;;;;4936056;29;20202;-76
2022/04/18 05:45:24;;;;;;;7.03;4.57;;;;;;;;;;4936697;29;20674;-75
2022/04/18 05:47:51;;;;;;;6.25;4.75;;;;;;;;;;4936586;29;20194;-73
2022/04/18 05:50:19;;;;;;;7.20;5.45;;;;;;;;;;4938435;29;20231;-75
2022/04/18 05:52:48;;;;;;;5.55;4.70;;;;;;;;;;4935057;29;20195;-74
2022/04/18 05:55:15;;;;;;;7.25;4.93;;;;;;;;;;4936090;29;20201;-73
2022/04/18 05:57:42;;;;;;;5.45;4.50;;;;;;;;;;4934408;29;20680;-73
2022/04/18 06:00:09;;;;;;;6.13;4.63;;;;;;;;;;4938159;29;20191;-74
2022/04/18 06:02:36;;;;;;;6.15;4.57;;;;;;;;;;4936146;29;20209;-74
2022/04/18 06:05:03;;;;;;;5.25;4.13;;;;;;;;;;4938206;29;20202;-72
2022/04/18 06:07:30;;;;;;;8.95;5.18;;;;;;;;;;4937985;29;20589;-71
2022/04/18 06:09:58;;;;;;;7.00;4.35;;;;;;;;;;4935612;29;20206;-72
2022/04/18 06:12:26;;;;;;;9.68;5.20;;;;;;;;;;4929498;29;20570;-73
2022/04/18 06:14:53;;;;;;;7.45;4.82;;;;;;;;;;4928998;29;20207;-70
2022/04/18 06:17:21;;;;;;;6.43;5.30;;;;;;;;;;4934284;29;20638;-70
2022/04/18 06:19:49;;;;;;;4.72;4.00;;;;;;;;;;4935325;29;20190;-71
2022/04/18 06:22:17;;;;;;;4.72;4.25;;;;;;;;;;4934812;29;20528;-71
2022/04/18 06:24:44;;;;;;;4.78;4.38;;;;;;;;;;4938278;29;20206;-73
2022/04/18 06:27:12;;;;;;;7.25;4.32;;;;;;;;;;4936911;29;20206;-73
2022/04/18 06:29:39;;;;;;;3.72;3.42;;;;;;;;;;4933446;29;20209;-72
2022/04/18 06:32:07;;;;;;;5.55;4.57;;;;;;;;;;4938942;29;20247;-72
2022/04/18 06:34:34;;;;;;;5.13;4.63;;;;;;;;;;4930107;29;20210;-71
2022/04/18 06:37:01;;;;;;;6.82;4.55;;;;;;;;;;4935659;29;20207;-72
2022/04/18 06:39:28;;;;;;;7.60;4.10;;;;;;;;;;4940709;28;20222;-72
2022/04/18 06:41:56;;;;;;;4.30;3.88;;;;;;;;;;4942366;29;20202;-72
2022/04/18 06:44:25;;;;;;;6.72;4.60;;;;;;;;;;4931588;29;20194;-71
2022/04/18 06:46:52;;;;;;;5.38;4.05;;;;;;;;;;4929018;29;20223;-72
2022/04/18 06:49:19;;;;;;;4.15;3.55;;;;;;;;;;4928764;29;20195;-71
2022/04/18 06:51:46;;;;;;;4.50;4.10;;;;;;;;;;4941664;29;20756;-71
2022/04/18 06:54:13;;;;;;;6.47;4.90;;;;;;;;;;4947484;29;20201;-71
2022/04/18 06:59:26;;;;;;;5.95;4.05;;;;;;;;;;4944367;29;20289;-72
2022/04/18 07:01:53;;;;;;;4.30;3.55;;;;;;;;;;4938676;29;20210;-71
2022/04/18 07:04:20;;;;;;;4.47;3.55;;;;;;;;;;4929478;29;20195;-72
2022/04/18 07:06:47;;;;;;;5.45;4.15;;;;;;;;;;4939131;29;20190;-72
2022/04/18 07:09:14;;;;;;;4.65;3.42;;;;;;;;;;4941222;29;20202;-71
2022/04/18 07:11:42;;;;;;;3.95;3.60;;;;;;;;;;4930378;29;20218;-71
2022/04/18 07:14:09;;;;;;;4.28;3.08;;;;;;;;;;4942957;29;20205;-72
2022/04/18 07:16:37;;;;;;;3.38;2.83;;;;;;;;;;4939890;29;20199;-72
2022/04/18 07:19:04;;;;;;;3.78;3.28;;;;;;;;;;4933932;29;20199;-72
2022/04/18 07:21:31;;;;;;;2.80;2.50;;;;;;;;;;4933986;29;20199;-72
2022/04/18 07:23:59;;;;;;;3.63;3.20;;;;;;;;;;4944081;29;20199;-71
2022/04/18 07:26:26;;;;;;;3.53;3.08;;;;;;;;;;4930912;29;20413;-71
2022/04/18 07:28:53;;;;;;;3.53;2.95;;;;;;;;;;4944449;29;20191;-71
2022/04/18 07:31:20;;;;;;;3.88;2.80;;;;;;;;;;4937804;29;20222;-71
2022/04/18 07:33:48;;;;;;;4.53;3.28;;;;;;;;;;4944034;29;20657;-71
2022/04/18 07:36:15;;;;;;;2.97;2.30;;;;;;;;;;4929183;29;20203;-72
2022/04/18 07:38:52;;;;;;;4.18;2.75;;;;;;;;;;4944501;29;20210;-72
2022/04/18 07:41:20;;;;;;;2.67;2.45;;;;;;;;;;4938999;29;20584;-72
2022/04/18 07:43:48;;;;;;;2.78;2.30;;;;;;;;;;4935971;29;20264;-73
2022/04/18 07:46:16;;;;;;;2.70;2.50;;;;;;;;;;4940406;29;20567;-72
2022/04/18 07:48:43;;;;;;;2.72;2.28;;;;;;;;;;4936288;29;20191;-72
2022/04/18 07:53:56;;;;;;;2.60;2.40;;;;;;;;;;4936316;29;20234;-72
2022/04/18 07:56:23;;;;;;;3.30;2.38;;;;;;;;;;4933794;29;20199;-72
2022/04/18 07:58:51;;;;;;;4.93;2.70;;;;;;;;;;4941688;29;20195;-72
2022/04/18 08:01:18;;;;;;;2.60;2.40;;;;;;;;;;4938360;29;20234;-70
2022/04/18 08:03:45;;;;;;;3.28;2.63;;;;;;;;;;4934863;29;20195;-72
2022/04/18 08:06:13;;;;;;;2.45;2.22;;;;;;;;;;4935040;29;20198;-71
2022/04/18 08:08:41;;;;;;;4.00;2.50;;;;;;;;;;4943468;29;20211;-71
2022/04/18 08:11:11;;;;;;;3.20;2.33;;;;;;;;;;4934603;29;20225;-73
2022/04/18 08:13:38;;;;;;;3.45;2.20;;;;;;;;;;4936172;29;20204;-71
2022/04/18 08:16:06;;;;;;;2.45;2.25;;;;;;;;;;4930315;29;20207;-74
2022/04/18 08:18:36;;;;;;;2.72;2.30;;;;;;;;;;4934252;29;20691;-70
2022/04/18 08:21:03;;;;;;;3.92;3.05;;;;;;;;;;4937144;29;20196;-71
2022/04/18 08:23:31;;;;;;;3.45;2.65;;;;;;;;;;4937767;29;20668;-71
2022/04/18 08:25:58;;;;;;;5.25;2.22;;;;;;;;;;4931494;29;20196;-71
2022/04/18 08:28:26;;;;;;;2.65;1.77;;;;;;;;;;4943804;29;20199;-72
2022/04/18 08:30:53;;;;;;;1.90;1.70;;;;;;;;;;4942566;29;20199;-70
2022/04/18 08:33:20;;;;;;;3.58;2.25;;;;;;;;;;4933899;29;20200;-71
2022/04/18 08:35:47;;;;;;;3.45;2.30;;;;;;;;;;4933264;29;20207;-70
2022/04/18 08:38:14;;;;;;;2.75;2.33;;;;;;;;;;4934166;29;20294;-71
2022/04/18 08:40:44;;;;;;;2.58;2.38;;;;;;;;;;4936442;29;20236;-71
2022/04/18 08:43:11;;;;;;;3.35;1.98;;;;;;;;;;4940008;29;20293;-71
2022/04/18 08:45:38;;;;;;;3.55;2.72;;;;;;;;;;4937185;29;20193;-71
2022/04/18 08:53:37;;;;;;;2.42;1.98;;;;;;;;;;4937648;29;20202;-71
2022/04/18 08:56:05;;;;;;;2.08;1.80;;;;;;;;;;4946331;29;20198;-70
2022/04/18 08:58:33;;;;;;;2.85;1.95;;;;;;;;;;4928103;29;20243;-71
2022/04/18 09:01:01;;;;;;;2.25;2.00;;;;;;;;;;4929101;29;20204;-72
2022/04/18 09:03:28;;;;;;;1.90;1.63;;;;;;;;;;4935684;29;20196;-71
2022/04/18 09:06:04;;;;;;;2.05;1.60;;;;;;;;;;4943858;29;20207;-72
2022/04/18 09:08:34;;;;;;;2.42;1.80;;;;;;;;;;4936379;29;20191;-71
2022/04/18 09:11:01;;;;;;;2.60;2.25;;;;;;;;;;4944282;29;20677;-70
2022/04/18 09:13:29;;;;;;;2.25;1.88;;;;;;;;;;4953958;29;20729;-70
2022/04/18 09:15:56;;;;;;;2.53;1.88;;;;;;;;;;4934783;29;20203;-71
2022/04/18 09:18:24;;;;;;;2.42;1.80;;;;;;;;;;4933228;29;20188;-70
2022/04/18 09:20:52;;;;;;;1.90;1.52;;;;;;;;;;4930180;29;20563;-70
2022/04/18 09:23:20;;;;;;;2.60;1.73;;;;;;;;;;4943520;29;20199;-70
2022/04/18 09:25:47;;;;;;;3.47;2.03;;;;;;;;;;4945403;29;20252;-70
2022/04/18 09:28:14;;;;;;;6.60;2.78;;;;;;;;;;4940652;29;20207;-70
2022/04/18 09:30:43;;;;;;;2.75;2.45;;;;;;;;;;4935913;29;20192;-70
2022/04/18 09:33:10;;;;;;;2.20;1.70;;;;;;;;;;4945659;29;20274;-70
2022/04/18 09:35:40;;;;;;;2.25;2.05;;;;;;;;;;4944297;29;20594;-70
2022/04/18 09:38:08;;;;;;;2.35;2.15;;;;;;;;;;4940255;29;20205;-71
2022/04/18 09:40:37;;;;;;;2.53;2.00;;;;;;;;;;4942833;29;20223;-70
2022/04/18 09:43:04;;;;;;;2.88;1.65;;;;;;;;;;4930773;29;20201;-70
2022/04/18 09:45:31;;;;;;;2.47;1.70;;;;;;;;;;4944716;29;20289;-70
2022/04/18 09:48:01;;;;;;;2.35;2.13;;;;;;;;;;4935364;29;20207;-69
2022/04/18 09:53:18;;;;;;;3.00;2.25;;;;;;;;;;4941326;29;20237;-69
2022/04/18 09:55:45;;;;;;;1.70;1.60;;;;;;;;;;4942307;29;20623;-70
2022/04/18 09:58:12;;;;;;;2.08;1.92;;;;;;;;;;4938160;29;20225;-70
2022/04/18 10:00:39;;;;;;;2.15;1.95;;;;;;;;;;4944973;29;20202;-71
2022/04/18 10:03:08;;;;;;;1.88;1.77;;;;;;;;;;4936713;29;20211;-70
2022/04/18 10:05:35;;;;;;;2.35;1.77;;;;;;;;;;4938191;29;20206;-70
2022/04/18 10:08:04;;;;;;;3.10;2.47;;;;;;;;;;4933673;29;20285;-70
2022/04/18 10:10:31;;;;;;;2.35;1.95;;;;;;;;;;4942676;29;20196;-70
2022/04/18 10:12:58;;;;;;;3.03;2.30;;;;;;;;;;4931200;29;20219;-70
2022/04/18 10:15:25;;;;;;;3.35;2.63;;;;;;;;;;4917425;29;20211;-70
2022/04/18 10:17:53;;;;;;;2.10;1.77;;;;;;;;;;4932094;29;20547;-71
2022/04/18 10:20:36;;;;;;;2.83;2.28;;;;;;;;;;4928198;29;20201;-70
2022/04/18 10:23:16;;;;;;;7.57;2.45;;;;;;;;;;4933863;29;20206;-70
2022/04/18 10:25:58;;;;;;;5.13;2.20;;;;;;;;;;4943381;29;20210;-70
2022/04/18 10:28:27;;;;;;;2.35;2.10;;;;;;;;;;4937368;29;20202;-69
2022/04/18 10:30:56;;;;;;;3.15;2.63;;;;;;;;;;4936898;29;20200;-70
2022/04/18 10:33:24;;;;;;;3.35;2.40;;;;;;;;;;4934490;29;20290;-70
2022/04/18 10:35:56;;;;;;;3.45;2.28;;;;;;;;;;4939614;29;20203;-69
2022/04/18 10:38:26;;;;;;;2.85;2.35;;;;;;;;;;4941112;29;20206;-70
2022/04/18 10:41:14;;;;;;;2.72;1.92;;;;;;;;;;4934494;29;20211;-80
2022/04/18 10:43:58;;;;;;;2.00;1.80;;;;;;;;;;4933435;29;20742;-73
2022/04/18 10:46:25;;;;;;;3.38;1.80;;;;;;;;;;4951740;29;20740;-72
2022/04/18 10:48:55;;;;;;;2.72;2.10;;;;;;;;;;4935685;29;20783;-73
2022/04/18 10:51:31;;;;;;;3.03;2.20;;;;;;;;;;4935209;29;20202;-74
2022/04/18 10:54:05;;;;;;;2.58;2.38;;;;;;;;;;4933834;29;20225;-73
2022/04/18 10:56:46;;;;;;;3.13;2.65;;;;;;;;;;4944438;29;20543;-74
2022/04/18 10:59:15;;;;;;;2.53;2.17;;;;;;;;;;4933392;29;20199;-75
2022/04/18 11:01:42;;;;;;;3.20;2.40;;;;;;;;;;4932077;29;20274;-72
2022/04/18 11:04:10;;;;;;;2.75;1.80;;;;;;;;;;4936423;29;20320;-70
2022/04/18 11:06:45;;;;;;;2.03;1.92;;;;;;;;;;4941817;29;20207;-70
2022/04/18 11:09:13;;;;;;;2.00;1.77;;;;;;;;;;4930015;29;20206;-70
2022/04/18 11:11:42;;;;;;;2.33;2.13;;;;;;;;;;4943057;29;20222;-71
2022/04/18 11:14:14;;;;;;;2.70;2.05;;;;;;;;;;4939761;29;20202;-70
2022/04/18 11:16:48;;;;;;;2.78;2.10;;;;;;;;;;4923446;29;21086;-71
2022/04/18 11:19:19;;;;;;;2.28;2.00;;;;;;;;;;4926551;29;20207;-70
2022/04/18 11:22:06;;;;;;;2.28;1.65;;;;;;;;;;4932521;29;20245;-69
2022/04/18 11:24:34;;;;;;;1.77;1.67;;;;;;;;;;4942810;29;20198;-69
2022/04/18 11:27:02;;;;;;;2.28;1.85;;;;;;;;;;4950063;29;20225;-69
2022/04/18 11:29:30;;;;;;;2.60;1.83;;;;;;;;;;4928417;29;20210;-73
2022/04/18 11:31:57;;;;;;;2.50;2.30;;;;;;;;;;4932409;29;20231;-70
2022/04/18 11:34:26;;;;;;;3.35;2.10;;;;;;;;;;4926748;29;20203;-68
2022/04/18 11:36:54;;;;;;;3.60;1.95;;;;;;;;;;4937230;29;20299;-69
2022/04/18 11:39:23;;;;;;;2.15;1.95;;;;;;;;;;4933974;29;20645;-71
2022/04/18 11:41:50;;;;;;;2.33;1.60;;;;;;;;;;4927813;29;20215;-70
2022/04/18 11:44:19;;;;;;;2.08;1.55;;;;;;;;;;4942138;29;20206;-71
2022/04/18 11:46:46;;;;;;;2.00;1.45;;;;;;;;;;4930506;29;20194;-69
2022/04/18 11:49:13;;;;;;;1.58;1.35;;;;;;;;;;4929834;29;20207;-72
2022/04/18 11:51:41;;;;;;;1.50;1.40;;;;;;;;;;4930082;29;20207;-70
2022/04/18 11:54:08;;;;;;;1.73;1.50;;;;;;;;;;4936751;29;20224;-73
2022/04/18 11:56:36;;;;;;;1.50;1.40;;;;;;;;;;4941160;29;20202;-71
2022/04/18 11:59:04;;;;;;;1.55;1.30;;;;;;;;;;4939741;29;20207;-71
2022/04/18 12:07:12;;;;;;;1.95;1.70;;;;;;;;;;4894579;29;20215;-67
2022/04/18 12:09:40;;;;;;;4.35;1.65;;;;;;;;;;4921913;29;20705;-73
2022/04/18 12:12:09;;;;;;;2.53;1.67;;;;;;;;;;4936245;29;20194;-76
2022/04/18 12:14:36;;;;;;;3.33;1.40;;;;;;;;;;4943653;29;20328;-67
2022/04/18 12:17:04;;;;;;;1.83;1.42;;;;;;;;;;4935946;29;20199;-67
2022/04/18 12:19:31;;;;;;;2.00;1.60;;;;;;;;;;4932568;29;20195;-68
2022/04/18 12:21:58;;;;;;;2.20;1.95;;;;;;;;;;4938310;29;20199;-68
2022/04/18 12:24:25;;;;;;;2.15;1.70;;;;;;;;;;4939663;29;20684;-67
2022/04/18 12:26:52;;;;;;;2.72;1.88;;;;;;;;;;4947814;29;20582;-67
2022/04/18 12:29:21;;;;;;;2.33;1.65;;;;;;;;;;4944053;29;20598;-67
2022/04/18 12:31:48;;;;;;;2.50;1.60;;;;;;;;;;4954489;29;20202;-68
2022/04/18 12:34:19;;;;;;;2.67;1.90;;;;;;;;;;4938746;29;20216;-68
2022/04/18 12:36:46;;;;;;;1.90;1.65;;;;;;;;;;4939644;29;20202;-68
2022/04/18 12:39:21;;;;;;;1.65;1.55;;;;;;;;;;4938850;29;20286;-68
2022/04/18 12:41:49;;;;;;;1.65;1.15;;;;;;;;;;4945312;29;20190;-68
2022/04/18 12:44:16;;;;;;;2.75;1.40;;;;;;;;;;4937510;29;20206;-67
2022/04/18 12:46:45;;;;;;;2.42;1.67;;;;;;;;;;4945406;29;20190;-68
2022/04/18 12:49:12;;;;;;;2.60;1.48;;;;;;;;;;4938711;29;20247;-67
2022/04/18 12:51:42;;;;;;;1.23;1.13;;;;;;;;;;4941183;29;20199;-67
2022/04/18 12:54:19;;;;;;;2.35;1.73;;;;;;;;;;4942074;29;20237;-67
2022/04/18 12:56:47;;;;;;;1.60;1.40;;;;;;;;;;4941798;29;20234;-67
2022/04/18 12:59:14;;;;;;;1.95;1.35;;;;;;;;;;4944653;29;20239;-68
2022/04/18 13:01:41;;;;;;;1.88;1.50;;;;;;;;;;4940891;29;20237;-67
2022/04/18 13:04:22;;;;;;;1.77;1.58;;;;;;;;;;4941218;29;20203;-67
2022/04/18 13:06:56;;;;;;;2.05;1.30;;;;;;;;;;4942112;29;20382;-68
2022/04/18 13:09:23;;;;;;;1.83;1.40;;;;;;;;;;4934103;29;20224;-67
2022/04/18 13:11:50;;;;;;;1.73;1.25;;;;;;;;;;4944964;29;20198;-67
2022/04/18 13:14:17;;;;;;;1.23;1.10;;;;;;;;;;4944734;29;20222;-68
2022/04/18 13:16:45;;;;;;;2.08;1.30;;;;;;;;;;4939621;29;20206;-68
2022/04/18 13:19:12;;;;;;;1.60;1.30;;;;;;;;;;4930804;29;20291;-67
2022/04/18 13:21:41;;;;;;;4.88;1.50;;;;;;;;;;4937753;29;20207;-67
2022/04/18 13:24:09;;;;;;;1.95;1.42;;;;;;;;;;4943340;29;20206;-67
2022/04/18 13:26:37;;;;;;;1.40;1.30;;;;;;;;;;4940901;29;20191;-67
2022/04/18 13:29:04;;;;;;;1.75;1.10;;;;;;;;;;4935512;29;20201;-67
2022/04/18 13:31:32;;;;;;;1.65;1.55;;;;;;;;;;4940480;29;20205;-68
2022/04/18 13:33:59;;;;;;;1.90;1.40;;;;;;;;;;4941122;29;20301;-68
2022/04/18 13:36:33;;;;;;;1.50;1.40;;;;;;;;;;4919415;29;20192;-68
2022/04/18 13:39:02;;;;;;;1.77;1.67;;;;;;;;;;4940913;29;20232;-68
2022/04/18 13:41:29;;;;;;;1.52;1.38;;;;;;;;;;4935423;29;20214;-69
2022/04/18 13:43:56;;;;;;;2.90;1.45;;;;;;;;;;4937411;29;20208;-68
2022/04/18 13:46:23;;;;;;;3.45;1.10;;;;;;;;;;4945524;29;20605;-68
2022/04/18 13:48:51;;;;;;;2.15;1.67;;;;;;;;;;4943672;29;20199;-68
2022/04/18 13:51:18;;;;;;;2.10;1.30;;;;;;;;;;4935074;29;20205;-68
2022/04/18 13:53:45;;;;;;;1.80;1.15;;;;;;;;;;4940237;29;20715;-68
2022/04/18 13:56:13;;;;;;;1.80;1.70;;;;;;;;;;4937892;29;20198;-68
2022/04/18 13:58:40;;;;;;;1.70;1.55;;;;;;;;;;4945956;29;20201;-68
2022/04/18 14:01:08;;;;;;;2.08;1.40;;;;;;;;;;4933970;29;20207;-68
2022/04/18 14:03:37;;;;;;;1.50;1.05;;;;;;;;;;4939665;29;20745;-68
2022/04/18 14:06:05;;;;;;;1.20;1.08;;;;;;;;;;4940358;29;20218;-69
2022/04/18 14:08:33;;;;;;;2.05;1.20;;;;;;;;;;4940444;29;20198;-68
2022/04/18 14:11:00;;;;;;;1.40;1.25;;;;;;;;;;4938253;29;20202;-68
2022/04/18 14:13:29;;;;;;;2.22;1.17;;;;;;;;;;4931650;29;20218;-68
2022/04/18 14:21:26;;;;;;;1.50;1.40;;;;;;;;;;4927188;29;20629;-68
2022/04/18 14:23:53;;;;;;;1.40;1.20;;;;;;;;;;4942250;29;20396;-68
2022/04/18 14:26:20;;;;;;;1.50;1.35;;;;;;;;;;4940943;29;20214;-68
2022/04/18 14:28:49;;;;;;;1.77;1.58;;;;;;;;;;4943898;29;20332;-68
2022/04/18 14:31:16;;;;;;;1.63;1.27;;;;;;;;;;4941237;29;20207;-68
2022/04/18 14:33:43;;;;;;;1.35;1.10;;;;;;;;;;4940631;29;20321;-69
2022/04/18 14:36:10;;;;;;;2.65;1.27;;;;;;;;;;4925778;29;20199;-68
2022/04/18 14:38:38;;;;;;;1.35;1.10;;;;;;;;;;4944852;28;20210;-68
2022/04/18 14:41:05;;;;;;;1.90;1.40;;;;;;;;;;4933839;29;20225;-68
2022/04/18 14:43:32;;;;;;;2.03;1.92;;;;;;;;;;4934767;29;20199;-68
2022/04/18 14:46:00;;;;;;;1.60;1.48;;;;;;;;;;4940539;29;20205;-68
2022/04/18 14:48:27;;;;;;;1.55;1.20;;;;;;;;;;4943830;29;20205;-68
2022/04/18 14:50:54;;;;;;;2.08;1.60;;;;;;;;;;4937842;29;20205;-68
2022/04/18 14:53:21;;;;;;;2.28;1.77;;;;;;;;;;4949032;29;20567;-68
2022/04/18 14:55:48;;;;;;;2.33;1.60;;;;;;;;;;4940925;29;20659;-68
2022/04/18 14:58:16;;;;;;;1.83;1.63;;;;;;;;;;4939368;29;20199;-68
2022/04/18 15:00:44;;;;;;;1.80;1.50;;;;;;;;;;4939713;29;20198;-68
2022/04/18 15:03:12;;;;;;;2.53;1.63;;;;;;;;;;4939349;29;20218;-68
2022/04/18 15:05:39;;;;;;;1.60;1.30;;;;;;;;;;4934828;29;20190;-69
2022/04/18 15:08:07;;;;;;;3.08;1.85;;;;;;;;;;4932707;29;20206;-68
2022/04/18 15:10:34;;;;;;;2.33;1.73;;;;;;;;;;4944635;29;20199;-68
2022/04/18 15:13:01;;;;;;;1.52;1.33;;;;;;;;;;4934711;29;20195;-68
2022/04/18 15:15:28;;;;;;;2.25;1.40;;;;;;;;;;4936432;29;20203;-68